sensor_id;sensor_type;location;lat;lon;timestamp;P1;durP1;ratioP1;P2;durP2;ratioP2
37955;SDS011;23776;51.592;7.180;2022-08-25T00:00:19;4.10;;;3.03;;
37955;SDS011;23776;51.592;7.180;2022-08-25T00:02:45;7.50;;;2.88;;
37955;SDS011;23776;51.592;7.180;2022-08-25T00:05:12;4.90;;;2.90;;
37955;SDS011;23776;51.592;7.180;2022-08-25T00:07:38;7.40;;;3.00;;
37955;SDS011;23776;51.592;7.180;2022-08-25T00:10:04;4.93;;;3.20;;
37955;SDS011;23776;51.592;7.180;2022-08-25T00:12:31;5.90;;;3.10;;
37955;SDS011;23776;51.592;7.180;2022-08-25T00:14:57;8.48;;;3.13;;
37955;SDS011;23776;51.592;7.180;2022-08-25T00:17:23;6.38;;;2.90;;
37955;SDS011;23776;51.592;7.180;2022-08-25T00:19:48;6.65;;;2.90;;
37955;SDS011;23776;51.592;7.180;2022-08-25T00:22:14;6.97;;;3.35;;
37955;SDS011;23776;51.592;7.180;2022-08-25T00:24:39;4.28;;;3.10;;
37955;SDS011;23776;51.592;7.180;2022-08-25T00:27:05;6.63;;;3.05;;
37955;SDS011;23776;51.592;7.180;2022-08-25T00:29:31;6.72;;;3.17;;
37955;SDS011;23776;51.592;7.180;2022-08-25T00:31:58;4.18;;;2.88;;
37955;SDS011;23776;51.592;7.180;2022-08-25T00:34:26;8.10;;;3.10;;
37955;SDS011;23776;51.592;7.180;2022-08-25T00:36:54;7.20;;;3.78;;
37955;SDS011;23776;51.592;7.180;2022-08-25T00:39:21;6.40;;;3.35;;
37955;SDS011;23776;51.592;7.180;2022-08-25T00:41:49;6.80;;;3.00;;
37955;SDS011;23776;51.592;7.180;2022-08-25T00:44:16;4.90;;;2.78;;
37955;SDS011;23776;51.592;7.180;2022-08-25T00:46:43;4.72;;;3.17;;
37955;SDS011;23776;51.592;7.180;2022-08-25T00:49:18;6.10;;;2.72;;
37955;SDS011;23776;51.592;7.180;2022-08-25T00:51:50;6.32;;;3.20;;
37955;SDS011;23776;51.592;7.180;2022-08-25T00:54:27;9.10;;;3.10;;
37955;SDS011;23776;51.592;7.180;2022-08-25T00:57:08;7.07;;;3.22;;
37955;SDS011;23776;51.592;7.180;2022-08-25T00:59:36;5.28;;;3.28;;
37955;SDS011;23776;51.592;7.180;2022-08-25T01:02:05;7.25;;;3.08;;
37955;SDS011;23776;51.592;7.180;2022-08-25T01:04:31;8.43;;;3.00;;
37955;SDS011;23776;51.592;7.180;2022-08-25T01:06:57;7.07;;;3.28;;
37955;SDS011;23776;51.592;7.180;2022-08-25T01:09:25;7.75;;;3.13;;
37955;SDS011;23776;51.592;7.180;2022-08-25T01:11:52;6.30;;;3.63;;
37955;SDS011;23776;51.592;7.180;2022-08-25T01:14:18;5.90;;;3.28;;
37955;SDS011;23776;51.592;7.180;2022-08-25T01:16:45;5.10;;;3.00;;
37955;SDS011;23776;51.592;7.180;2022-08-25T01:19:12;6.30;;;3.30;;
37955;SDS011;23776;51.592;7.180;2022-08-25T01:21:41;8.05;;;3.17;;
37955;SDS011;23776;51.592;7.180;2022-08-25T01:24:10;6.38;;;3.33;;
37955;SDS011;23776;51.592;7.180;2022-08-25T01:26:44;6.88;;;3.38;;
37955;SDS011;23776;51.592;7.180;2022-08-25T01:29:10;9.32;;;3.40;;
37955;SDS011;23776;51.592;7.180;2022-08-25T01:31:56;8.40;;;3.70;;
37955;SDS011;23776;51.592;7.180;2022-08-25T01:34:25;6.10;;;3.00;;
37955;SDS011;23776;51.592;7.180;2022-08-25T01:36:53;4.57;;;3.25;;
37955;SDS011;23776;51.592;7.180;2022-08-25T01:39:19;5.25;;;3.00;;
37955;SDS011;23776;51.592;7.180;2022-08-25T01:44:42;6.03;;;3.55;;
37955;SDS011;23776;51.592;7.180;2022-08-25T01:47:10;6.68;;;3.33;;
37955;SDS011;23776;51.592;7.180;2022-08-25T01:49:36;7.38;;;2.90;;
37955;SDS011;23776;51.592;7.180;2022-08-25T01:52:09;6.47;;;3.05;;
37955;SDS011;23776;51.592;7.180;2022-08-25T01:54:41;6.15;;;3.30;;
37955;SDS011;23776;51.592;7.180;2022-08-25T01:57:07;6.22;;;3.20;;
37955;SDS011;23776;51.592;7.180;2022-08-25T01:59:33;9.95;;;3.38;;
37955;SDS011;23776;51.592;7.180;2022-08-25T02:01:58;6.40;;;3.97;;
37955;SDS011;23776;51.592;7.180;2022-08-25T02:04:25;6.55;;;3.00;;
37955;SDS011;23776;51.592;7.180;2022-08-25T02:06:53;6.45;;;3.50;;
37955;SDS011;23776;51.592;7.180;2022-08-25T02:09:18;5.78;;;3.17;;
37955;SDS011;23776;51.592;7.180;2022-08-25T02:11:45;5.30;;;2.75;;
37955;SDS011;23776;51.592;7.180;2022-08-25T02:14:12;11.80;;;3.65;;
37955;SDS011;23776;51.592;7.180;2022-08-25T02:16:39;5.35;;;3.13;;
37955;SDS011;23776;51.592;7.180;2022-08-25T02:19:10;5.70;;;3.10;;
37955;SDS011;23776;51.592;7.180;2022-08-25T02:21:36;5.45;;;3.10;;
37955;SDS011;23776;51.592;7.180;2022-08-25T02:24:02;5.15;;;3.30;;
37955;SDS011;23776;51.592;7.180;2022-08-25T02:26:29;6.38;;;3.35;;
37955;SDS011;23776;51.592;7.180;2022-08-25T02:28:55;8.13;;;3.28;;
37955;SDS011;23776;51.592;7.180;2022-08-25T02:31:21;7.40;;;3.33;;
37955;SDS011;23776;51.592;7.180;2022-08-25T02:33:49;7.18;;;3.17;;
37955;SDS011;23776;51.592;7.180;2022-08-25T02:36:15;4.85;;;2.97;;
37955;SDS011;23776;51.592;7.180;2022-08-25T02:38:41;5.68;;;3.40;;
37955;SDS011;23776;51.592;7.180;2022-08-25T02:41:12;4.78;;;3.35;;
37955;SDS011;23776;51.592;7.180;2022-08-25T02:43:40;6.97;;;3.60;;
37955;SDS011;23776;51.592;7.180;2022-08-25T02:46:07;8.02;;;3.90;;
37955;SDS011;23776;51.592;7.180;2022-08-25T02:48:33;6.47;;;3.50;;
37955;SDS011;23776;51.592;7.180;2022-08-25T02:50:59;9.50;;;3.58;;
37955;SDS011;23776;51.592;7.180;2022-08-25T02:53:26;8.02;;;3.28;;
37955;SDS011;23776;51.592;7.180;2022-08-25T02:55:53;11.48;;;3.67;;
37955;SDS011;23776;51.592;7.180;2022-08-25T02:58:18;6.65;;;4.13;;
37955;SDS011;23776;51.592;7.180;2022-08-25T03:00:45;6.32;;;3.65;;
37955;SDS011;23776;51.592;7.180;2022-08-25T03:03:12;12.68;;;3.83;;
37955;SDS011;23776;51.592;7.180;2022-08-25T03:05:38;7.38;;;3.35;;
37955;SDS011;23776;51.592;7.180;2022-08-25T03:08:05;8.27;;;3.65;;
37955;SDS011;23776;51.592;7.180;2022-08-25T03:10:32;7.80;;;3.70;;
37955;SDS011;23776;51.592;7.180;2022-08-25T03:12:58;6.18;;;3.53;;
37955;SDS011;23776;51.592;7.180;2022-08-25T03:15:23;7.93;;;3.63;;
37955;SDS011;23776;51.592;7.180;2022-08-25T03:17:51;5.45;;;3.10;;
37955;SDS011;23776;51.592;7.180;2022-08-25T03:20:18;10.60;;;3.92;;
37955;SDS011;23776;51.592;7.180;2022-08-25T03:22:44;5.15;;;3.40;;
37955;SDS011;23776;51.592;7.180;2022-08-25T03:25:10;7.38;;;3.72;;
37955;SDS011;23776;51.592;7.180;2022-08-25T03:27:54;8.10;;;3.90;;
37955;SDS011;23776;51.592;7.180;2022-08-25T03:30:20;5.32;;;3.63;;
37955;SDS011;23776;51.592;7.180;2022-08-25T03:32:45;10.88;;;4.25;;
37955;SDS011;23776;51.592;7.180;2022-08-25T03:35:12;6.55;;;3.60;;
37955;SDS011;23776;51.592;7.180;2022-08-25T03:37:38;6.90;;;3.80;;
37955;SDS011;23776;51.592;7.180;2022-08-25T03:40:04;9.43;;;4.50;;
37955;SDS011;23776;51.592;7.180;2022-08-25T03:42:33;10.05;;;4.07;;
37955;SDS011;23776;51.592;7.180;2022-08-25T03:45:00;6.45;;;3.38;;
37955;SDS011;23776;51.592;7.180;2022-08-25T03:47:28;7.75;;;4.18;;
37955;SDS011;23776;51.592;7.180;2022-08-25T03:49:54;15.60;;;5.15;;
37955;SDS011;23776;51.592;7.180;2022-08-25T03:52:20;7.55;;;4.10;;
37955;SDS011;23776;51.592;7.180;2022-08-25T03:54:45;5.93;;;3.53;;
37955;SDS011;23776;51.592;7.180;2022-08-25T03:57:11;8.88;;;4.50;;
37955;SDS011;23776;51.592;7.180;2022-08-25T03:59:37;6.60;;;3.97;;
37955;SDS011;23776;51.592;7.180;2022-08-25T04:02:03;7.57;;;4.00;;
37955;SDS011;23776;51.592;7.180;2022-08-25T04:04:30;12.57;;;5.05;;
37955;SDS011;23776;51.592;7.180;2022-08-25T04:06:57;8.25;;;4.30;;
37955;SDS011;23776;51.592;7.180;2022-08-25T04:09:23;8.60;;;3.83;;
37955;SDS011;23776;51.592;7.180;2022-08-25T04:11:49;5.40;;;3.88;;
37955;SDS011;23776;51.592;7.180;2022-08-25T04:14:15;6.70;;;4.38;;
37955;SDS011;23776;51.592;7.180;2022-08-25T04:16:41;11.02;;;4.65;;
37955;SDS011;23776;51.592;7.180;2022-08-25T04:19:07;8.68;;;3.97;;
37955;SDS011;23776;51.592;7.180;2022-08-25T04:21:34;7.70;;;4.45;;
37955;SDS011;23776;51.592;7.180;2022-08-25T04:24:01;6.78;;;4.40;;
37955;SDS011;23776;51.592;7.180;2022-08-25T04:26:29;10.85;;;4.90;;
37955;SDS011;23776;51.592;7.180;2022-08-25T04:28:57;7.93;;;4.40;;
37955;SDS011;23776;51.592;7.180;2022-08-25T04:31:24;7.78;;;4.97;;
37955;SDS011;23776;51.592;7.180;2022-08-25T04:33:51;7.32;;;4.05;;
37955;SDS011;23776;51.592;7.180;2022-08-25T04:36:17;12.48;;;4.47;;
37955;SDS011;23776;51.592;7.180;2022-08-25T04:38:44;9.05;;;5.10;;
37955;SDS011;23776;51.592;7.180;2022-08-25T04:41:12;8.40;;;5.10;;
37955;SDS011;23776;51.592;7.180;2022-08-25T04:43:40;10.88;;;5.20;;
37955;SDS011;23776;51.592;7.180;2022-08-25T04:46:07;17.55;;;5.18;;
37955;SDS011;23776;51.592;7.180;2022-08-25T04:48:36;12.82;;;5.22;;
37955;SDS011;23776;51.592;7.180;2022-08-25T04:51:07;9.80;;;4.80;;
37955;SDS011;23776;51.592;7.180;2022-08-25T04:53:35;13.80;;;4.88;;
37955;SDS011;23776;51.592;7.180;2022-08-25T04:56:04;7.80;;;4.65;;
37955;SDS011;23776;51.592;7.180;2022-08-25T04:58:31;13.48;;;5.45;;
37955;SDS011;23776;51.592;7.180;2022-08-25T05:01:00;9.57;;;4.53;;
37955;SDS011;23776;51.592;7.180;2022-08-25T05:03:33;11.85;;;5.63;;
37955;SDS011;23776;51.592;7.180;2022-08-25T05:05:59;8.10;;;5.05;;
37955;SDS011;23776;51.592;7.180;2022-08-25T05:08:25;10.68;;;5.22;;
37955;SDS011;23776;51.592;7.180;2022-08-25T05:10:51;8.60;;;5.47;;
37955;SDS011;23776;51.592;7.180;2022-08-25T05:13:19;10.73;;;5.57;;
37955;SDS011;23776;51.592;7.180;2022-08-25T05:15:52;12.55;;;5.80;;
37955;SDS011;23776;51.592;7.180;2022-08-25T05:18:22;8.20;;;5.65;;
37955;SDS011;23776;51.592;7.180;2022-08-25T05:20:50;13.27;;;5.68;;
37955;SDS011;23776;51.592;7.180;2022-08-25T05:23:18;10.85;;;5.55;;
37955;SDS011;23776;51.592;7.180;2022-08-25T05:25:45;15.05;;;5.90;;
37955;SDS011;23776;51.592;7.180;2022-08-25T05:28:11;11.02;;;5.63;;
37955;SDS011;23776;51.592;7.180;2022-08-25T05:30:39;10.75;;;5.97;;
37955;SDS011;23776;51.592;7.180;2022-08-25T05:33:06;11.18;;;6.05;;
37955;SDS011;23776;51.592;7.180;2022-08-25T05:35:32;9.48;;;5.78;;
37955;SDS011;23776;51.592;7.180;2022-08-25T05:37:58;19.63;;;6.20;;
37955;SDS011;23776;51.592;7.180;2022-08-25T05:40:24;13.20;;;6.38;;
37955;SDS011;23776;51.592;7.180;2022-08-25T05:42:49;11.45;;;5.32;;
37955;SDS011;23776;51.592;7.180;2022-08-25T05:45:15;9.02;;;5.30;;
37955;SDS011;23776;51.592;7.180;2022-08-25T05:47:42;12.13;;;5.90;;
37955;SDS011;23776;51.592;7.180;2022-08-25T05:50:08;16.10;;;6.22;;
37955;SDS011;23776;51.592;7.180;2022-08-25T05:52:34;8.52;;;5.38;;
37955;SDS011;23776;51.592;7.180;2022-08-25T05:55:00;11.50;;;4.93;;
37955;SDS011;23776;51.592;7.180;2022-08-25T05:57:26;15.63;;;6.00;;
37955;SDS011;23776;51.592;7.180;2022-08-25T05:59:51;16.77;;;5.43;;
37955;SDS011;23776;51.592;7.180;2022-08-25T06:02:17;15.63;;;6.55;;
37955;SDS011;23776;51.592;7.180;2022-08-25T06:05:01;13.50;;;5.57;;
37955;SDS011;23776;51.592;7.180;2022-08-25T06:07:27;6.75;;;5.40;;
37955;SDS011;23776;51.592;7.180;2022-08-25T06:09:53;10.75;;;6.13;;
37955;SDS011;23776;51.592;7.180;2022-08-25T06:12:19;14.10;;;5.53;;
37955;SDS011;23776;51.592;7.180;2022-08-25T06:14:45;9.88;;;5.30;;
37955;SDS011;23776;51.592;7.180;2022-08-25T06:17:13;9.18;;;5.18;;
37955;SDS011;23776;51.592;7.180;2022-08-25T06:19:39;10.50;;;5.50;;
37955;SDS011;23776;51.592;7.180;2022-08-25T06:22:04;9.23;;;5.05;;
37955;SDS011;23776;51.592;7.180;2022-08-25T06:24:30;8.07;;;4.65;;
37955;SDS011;23776;51.592;7.180;2022-08-25T06:26:57;13.25;;;5.65;;
37955;SDS011;23776;51.592;7.180;2022-08-25T06:29:23;15.63;;;5.55;;
37955;SDS011;23776;51.592;7.180;2022-08-25T06:31:48;11.02;;;4.90;;
37955;SDS011;23776;51.592;7.180;2022-08-25T06:34:15;13.77;;;5.95;;
37955;SDS011;23776;51.592;7.180;2022-08-25T06:36:41;10.27;;;5.10;;
37955;SDS011;23776;51.592;7.180;2022-08-25T06:39:07;12.77;;;5.50;;
37955;SDS011;23776;51.592;7.180;2022-08-25T06:41:33;11.63;;;5.10;;
37955;SDS011;23776;51.592;7.180;2022-08-25T06:43:59;12.43;;;5.13;;
37955;SDS011;23776;51.592;7.180;2022-08-25T06:46:25;12.15;;;5.15;;
37955;SDS011;23776;51.592;7.180;2022-08-25T06:48:52;11.65;;;5.82;;
37955;SDS011;23776;51.592;7.180;2022-08-25T06:51:19;11.02;;;5.45;;
37955;SDS011;23776;51.592;7.180;2022-08-25T06:53:46;11.02;;;5.22;;
37955;SDS011;23776;51.592;7.180;2022-08-25T06:56:14;12.48;;;5.40;;
37955;SDS011;23776;51.592;7.180;2022-08-25T06:58:41;6.85;;;4.18;;
37955;SDS011;23776;51.592;7.180;2022-08-25T07:03:36;10.50;;;4.68;;
37955;SDS011;23776;51.592;7.180;2022-08-25T07:06:02;6.47;;;4.03;;
37955;SDS011;23776;51.592;7.180;2022-08-25T07:08:29;10.25;;;4.97;;
37955;SDS011;23776;51.592;7.180;2022-08-25T07:10:54;14.52;;;4.38;;
37955;SDS011;23776;51.592;7.180;2022-08-25T07:13:20;7.85;;;4.60;;
37955;SDS011;23776;51.592;7.180;2022-08-25T07:15:46;10.23;;;4.15;;
37955;SDS011;23776;51.592;7.180;2022-08-25T07:18:11;8.50;;;4.35;;
37955;SDS011;23776;51.592;7.180;2022-08-25T07:20:38;15.65;;;4.20;;
37955;SDS011;23776;51.592;7.180;2022-08-25T07:23:04;10.65;;;4.40;;
37955;SDS011;23776;51.592;7.180;2022-08-25T07:25:31;8.05;;;4.20;;
37955;SDS011;23776;51.592;7.180;2022-08-25T07:27:57;7.43;;;4.30;;
37955;SDS011;23776;51.592;7.180;2022-08-25T07:30:23;6.47;;;3.88;;
37955;SDS011;23776;51.592;7.180;2022-08-25T07:32:49;8.60;;;4.82;;
37955;SDS011;23776;51.592;7.180;2022-08-25T07:35:15;6.97;;;4.25;;
37955;SDS011;23776;51.592;7.180;2022-08-25T07:37:42;11.45;;;4.38;;
37955;SDS011;23776;51.592;7.180;2022-08-25T07:40:11;10.85;;;4.45;;
37955;SDS011;23776;51.592;7.180;2022-08-25T07:42:39;8.68;;;4.25;;
37955;SDS011;23776;51.592;7.180;2022-08-25T07:45:05;7.57;;;4.50;;
37955;SDS011;23776;51.592;7.180;2022-08-25T07:47:32;7.10;;;4.30;;
37955;SDS011;23776;51.592;7.180;2022-08-25T07:49:58;6.13;;;3.85;;
37955;SDS011;23776;51.592;7.180;2022-08-25T07:52:23;6.75;;;4.43;;
37955;SDS011;23776;51.592;7.180;2022-08-25T07:54:49;7.20;;;4.00;;
37955;SDS011;23776;51.592;7.180;2022-08-25T07:57:17;9.50;;;4.65;;
37955;SDS011;23776;51.592;7.180;2022-08-25T07:59:43;7.10;;;3.90;;
37955;SDS011;23776;51.592;7.180;2022-08-25T08:02:09;5.75;;;4.30;;
37955;SDS011;23776;51.592;7.180;2022-08-25T08:04:36;8.05;;;4.78;;
37955;SDS011;23776;51.592;7.180;2022-08-25T08:07:03;6.95;;;4.25;;
37955;SDS011;23776;51.592;7.180;2022-08-25T08:09:29;8.10;;;4.50;;
37955;SDS011;23776;51.592;7.180;2022-08-25T08:11:55;7.60;;;4.65;;
37955;SDS011;23776;51.592;7.180;2022-08-25T08:14:21;6.82;;;4.78;;
37955;SDS011;23776;51.592;7.180;2022-08-25T08:16:47;8.27;;;4.53;;
37955;SDS011;23776;51.592;7.180;2022-08-25T08:19:13;9.65;;;4.47;;
37955;SDS011;23776;51.592;7.180;2022-08-25T08:21:39;7.78;;;4.70;;
37955;SDS011;23776;51.592;7.180;2022-08-25T08:24:06;11.02;;;4.97;;
37955;SDS011;23776;51.592;7.180;2022-08-25T08:26:32;11.32;;;4.88;;
37955;SDS011;23776;51.592;7.180;2022-08-25T08:28:58;7.75;;;4.35;;
37955;SDS011;23776;51.592;7.180;2022-08-25T08:31:25;8.35;;;4.57;;
37955;SDS011;23776;51.592;7.180;2022-08-25T08:33:52;8.18;;;4.75;;
37955;SDS011;23776;51.592;7.180;2022-08-25T08:36:20;8.13;;;4.30;;
37955;SDS011;23776;51.592;7.180;2022-08-25T08:38:47;6.78;;;5.07;;
37955;SDS011;23776;51.592;7.180;2022-08-25T08:47:04;7.75;;;4.85;;
37955;SDS011;23776;51.592;7.180;2022-08-25T08:52:06;8.55;;;5.05;;
37955;SDS011;23776;51.592;7.180;2022-08-25T08:54:34;9.15;;;4.20;;
37955;SDS011;23776;51.592;7.180;2022-08-25T08:57:06;6.90;;;4.45;;
37955;SDS011;23776;51.592;7.180;2022-08-25T08:59:40;7.75;;;4.57;;
37955;SDS011;23776;51.592;7.180;2022-08-25T09:02:35;6.85;;;4.38;;
37955;SDS011;23776;51.592;7.180;2022-08-25T09:05:02;8.48;;;4.75;;
37955;SDS011;23776;51.592;7.180;2022-08-25T09:07:34;7.10;;;4.88;;
37955;SDS011;23776;51.592;7.180;2022-08-25T09:10:06;6.47;;;4.30;;
37955;SDS011;23776;51.592;7.180;2022-08-25T09:21:27;8.93;;;5.07;;
37955;SDS011;23776;51.592;7.180;2022-08-25T09:29:35;7.55;;;4.03;;
37955;SDS011;23776;51.592;7.180;2022-08-25T09:32:13;8.65;;;4.40;;
37955;SDS011;23776;51.592;7.180;2022-08-25T09:34:41;9.20;;;4.82;;
37955;SDS011;23776;51.592;7.180;2022-08-25T09:37:07;7.75;;;4.88;;
37955;SDS011;23776;51.592;7.180;2022-08-25T09:39:33;5.70;;;4.30;;
37955;SDS011;23776;51.592;7.180;2022-08-25T09:41:58;8.35;;;5.30;;
37955;SDS011;23776;51.592;7.180;2022-08-25T09:44:31;11.52;;;5.10;;
37955;SDS011;23776;51.592;7.180;2022-08-25T09:47:24;12.52;;;4.80;;
37955;SDS011;23776;51.592;7.180;2022-08-25T09:49:50;7.53;;;4.82;;
37955;SDS011;23776;51.592;7.180;2022-08-25T09:55:22;5.40;;;4.43;;
37955;SDS011;23776;51.592;7.180;2022-08-25T09:57:50;8.48;;;4.70;;
37955;SDS011;23776;51.592;7.180;2022-08-25T10:05:38;7.20;;;4.15;;
37955;SDS011;23776;51.592;7.180;2022-08-25T10:08:40;8.05;;;4.40;;
37955;SDS011;23776;51.592;7.180;2022-08-25T10:16:31;8.50;;;4.75;;
37955;SDS011;23776;51.592;7.180;2022-08-25T10:21:40;8.95;;;4.47;;
37955;SDS011;23776;51.592;7.180;2022-08-25T10:24:07;7.68;;;4.55;;
37955;SDS011;23776;51.592;7.180;2022-08-25T10:29:32;8.27;;;4.13;;
37955;SDS011;23776;51.592;7.180;2022-08-25T10:32:11;6.40;;;3.78;;
37955;SDS011;23776;51.592;7.180;2022-08-25T10:34:54;7.72;;;4.15;;
37955;SDS011;23776;51.592;7.180;2022-08-25T10:40:26;5.38;;;4.00;;
37955;SDS011;23776;51.592;7.180;2022-08-25T10:43:10;5.95;;;4.20;;
37955;SDS011;23776;51.592;7.180;2022-08-25T10:45:52;6.93;;;4.90;;
37955;SDS011;23776;51.592;7.180;2022-08-25T11:04:39;7.85;;;5.28;;
37955;SDS011;23776;51.592;7.180;2022-08-25T11:09:47;8.02;;;4.93;;
37955;SDS011;23776;51.592;7.180;2022-08-25T11:12:30;7.97;;;5.78;;
37955;SDS011;23776;51.592;7.180;2022-08-25T11:15:06;8.43;;;4.88;;
37955;SDS011;23776;51.592;7.180;2022-08-25T11:17:41;10.45;;;5.25;;
37955;SDS011;23776;51.592;7.180;2022-08-25T11:20:16;11.13;;;6.03;;
37955;SDS011;23776;51.592;7.180;2022-08-25T11:22:49;10.48;;;5.20;;
37955;SDS011;23776;51.592;7.180;2022-08-25T11:25:31;10.20;;;5.47;;
37955;SDS011;23776;51.592;7.180;2022-08-25T11:30:51;8.25;;;5.53;;
37955;SDS011;23776;51.592;7.180;2022-08-25T11:33:21;12.27;;;4.97;;
37955;SDS011;23776;51.592;7.180;2022-08-25T11:35:52;9.05;;;5.65;;
37955;SDS011;23776;51.592;7.180;2022-08-25T11:47:09;8.15;;;4.85;;
37955;SDS011;23776;51.592;7.180;2022-08-25T11:49:54;8.00;;;5.15;;
37955;SDS011;23776;51.592;7.180;2022-08-25T11:55:18;7.35;;;5.53;;
37955;SDS011;23776;51.592;7.180;2022-08-25T11:57:48;8.38;;;4.97;;
37955;SDS011;23776;51.592;7.180;2022-08-25T12:21:56;8.60;;;4.78;;
37955;SDS011;23776;51.592;7.180;2022-08-25T12:35:31;6.57;;;4.35;;
37955;SDS011;23776;51.592;7.180;2022-08-25T12:38:16;5.97;;;4.60;;
37955;SDS011;23776;51.592;7.180;2022-08-25T12:43:43;4.95;;;4.47;;
37955;SDS011;23776;51.592;7.180;2022-08-25T12:51:51;6.00;;;4.03;;
37955;SDS011;23776;51.592;7.180;2022-08-25T12:54:36;5.80;;;4.18;;
37955;SDS011;23776;51.592;7.180;2022-08-25T13:00:19;4.50;;;4.10;;
37955;SDS011;23776;51.592;7.180;2022-08-25T13:02:57;5.07;;;4.30;;
37955;SDS011;23776;51.592;7.180;2022-08-25T13:08:45;6.75;;;4.40;;
37955;SDS011;23776;51.592;7.180;2022-08-25T13:11:15;6.95;;;3.97;;
37955;SDS011;23776;51.592;7.180;2022-08-25T13:13:55;5.10;;;3.63;;
37955;SDS011;23776;51.592;7.180;2022-08-25T13:16:50;5.60;;;3.80;;
37955;SDS011;23776;51.592;7.180;2022-08-25T13:19:18;6.55;;;3.90;;
37955;SDS011;23776;51.592;7.180;2022-08-25T13:21:44;6.10;;;4.43;;
37955;SDS011;23776;51.592;7.180;2022-08-25T13:24:10;7.72;;;4.25;;
37955;SDS011;23776;51.592;7.180;2022-08-25T13:26:44;4.80;;;3.72;;
37955;SDS011;23776;51.592;7.180;2022-08-25T13:29:13;5.05;;;4.28;;
37955;SDS011;23776;51.592;7.180;2022-08-25T13:34:22;6.10;;;3.88;;
37955;SDS011;23776;51.592;7.180;2022-08-25T13:36:54;5.63;;;3.92;;
37955;SDS011;23776;51.592;7.180;2022-08-25T13:39:39;7.95;;;4.32;;
37955;SDS011;23776;51.592;7.180;2022-08-25T13:42:06;7.07;;;4.30;;
37955;SDS011;23776;51.592;7.180;2022-08-25T13:44:38;5.05;;;3.67;;
37955;SDS011;23776;51.592;7.180;2022-08-25T13:47:06;5.05;;;3.67;;
37955;SDS011;23776;51.592;7.180;2022-08-25T13:49:51;6.47;;;3.42;;
37955;SDS011;23776;51.592;7.180;2022-08-25T13:52:26;5.90;;;4.07;;
37955;SDS011;23776;51.592;7.180;2022-08-25T13:54:59;5.53;;;3.95;;
37955;SDS011;23776;51.592;7.180;2022-08-25T13:57:26;3.97;;;3.47;;
37955;SDS011;23776;51.592;7.180;2022-08-25T14:00:02;4.75;;;3.42;;
37955;SDS011;23776;51.592;7.180;2022-08-25T14:02:44;4.55;;;3.60;;
37955;SDS011;23776;51.592;7.180;2022-08-25T14:05:11;4.15;;;3.75;;
37955;SDS011;23776;51.592;7.180;2022-08-25T14:07:38;6.15;;;4.45;;
37955;SDS011;23776;51.592;7.180;2022-08-25T14:10:08;4.75;;;3.50;;
37955;SDS011;23776;51.592;7.180;2022-08-25T14:15:52;5.07;;;3.40;;
37955;SDS011;23776;51.592;7.180;2022-08-25T14:18:27;5.85;;;3.80;;
37955;SDS011;23776;51.592;7.180;2022-08-25T14:20:55;5.00;;;3.33;;
37955;SDS011;23776;51.592;7.180;2022-08-25T14:23:24;4.85;;;4.00;;
37955;SDS011;23776;51.592;7.180;2022-08-25T14:25:53;5.40;;;3.42;;
37955;SDS011;23776;51.592;7.180;2022-08-25T14:28:22;6.75;;;3.78;;
37955;SDS011;23776;51.592;7.180;2022-08-25T14:31:00;5.22;;;3.40;;
37955;SDS011;23776;51.592;7.180;2022-08-25T14:33:32;4.93;;;3.97;;
37955;SDS011;23776;51.592;7.180;2022-08-25T14:36:03;4.78;;;4.05;;
37955;SDS011;23776;51.592;7.180;2022-08-25T14:38:30;4.72;;;3.25;;
37955;SDS011;23776;51.592;7.180;2022-08-25T14:40:56;5.38;;;4.15;;
37955;SDS011;23776;51.592;7.180;2022-08-25T14:43:21;6.65;;;4.28;;
37955;SDS011;23776;51.592;7.180;2022-08-25T14:45:47;6.20;;;4.35;;
37955;SDS011;23776;51.592;7.180;2022-08-25T14:48:19;5.38;;;4.05;;
37955;SDS011;23776;51.592;7.180;2022-08-25T14:50:50;5.30;;;4.05;;
37955;SDS011;23776;51.592;7.180;2022-08-25T14:53:17;5.53;;;3.80;;
37955;SDS011;23776;51.592;7.180;2022-08-25T14:55:42;5.68;;;3.72;;
37955;SDS011;23776;51.592;7.180;2022-08-25T14:58:08;9.68;;;4.00;;
37955;SDS011;23776;51.592;7.180;2022-08-25T15:00:43;4.30;;;3.70;;
37955;SDS011;23776;51.592;7.180;2022-08-25T15:03:14;5.10;;;3.88;;
37955;SDS011;23776;51.592;7.180;2022-08-25T15:05:49;6.18;;;4.15;;
37955;SDS011;23776;51.592;7.180;2022-08-25T15:08:14;5.75;;;4.00;;
37955;SDS011;23776;51.592;7.180;2022-08-25T15:10:59;6.13;;;3.67;;
37955;SDS011;23776;51.592;7.180;2022-08-25T15:13:24;9.43;;;4.05;;
37955;SDS011;23776;51.592;7.180;2022-08-25T15:15:51;6.10;;;4.05;;
37955;SDS011;23776;51.592;7.180;2022-08-25T15:18:17;5.45;;;4.03;;
37955;SDS011;23776;51.592;7.180;2022-08-25T15:20:43;3.55;;;3.25;;
37955;SDS011;23776;51.592;7.180;2022-08-25T15:23:09;7.50;;;4.20;;
37955;SDS011;23776;51.592;7.180;2022-08-25T15:25:35;5.72;;;4.22;;
37955;SDS011;23776;51.592;7.180;2022-08-25T15:28:04;6.80;;;3.97;;
37955;SDS011;23776;51.592;7.180;2022-08-25T15:30:31;6.32;;;3.17;;
37955;SDS011;23776;51.592;7.180;2022-08-25T15:32:57;8.15;;;3.78;;
37955;SDS011;23776;51.592;7.180;2022-08-25T15:35:23;3.85;;;3.13;;
37955;SDS011;23776;51.592;7.180;2022-08-25T15:37:49;6.20;;;3.97;;
37955;SDS011;23776;51.592;7.180;2022-08-25T15:40:14;5.60;;;3.70;;
37955;SDS011;23776;51.592;7.180;2022-08-25T15:42:40;6.57;;;3.70;;
37955;SDS011;23776;51.592;7.180;2022-08-25T15:45:06;3.65;;;3.35;;
37955;SDS011;23776;51.592;7.180;2022-08-25T15:47:33;6.07;;;4.20;;
37955;SDS011;23776;51.592;7.180;2022-08-25T15:50:00;7.40;;;3.78;;
37955;SDS011;23776;51.592;7.180;2022-08-25T15:52:30;8.93;;;4.10;;
37955;SDS011;23776;51.592;7.180;2022-08-25T15:54:55;9.40;;;3.42;;
37955;SDS011;23776;51.592;7.180;2022-08-25T15:57:21;5.90;;;3.30;;
37955;SDS011;23776;51.592;7.180;2022-08-25T15:59:46;4.75;;;3.90;;
37955;SDS011;23776;51.592;7.180;2022-08-25T16:02:12;4.40;;;4.00;;
37955;SDS011;23776;51.592;7.180;2022-08-25T16:04:38;4.70;;;3.60;;
37955;SDS011;23776;51.592;7.180;2022-08-25T16:07:03;3.72;;;3.42;;
37955;SDS011;23776;51.592;7.180;2022-08-25T16:09:29;5.78;;;3.85;;
37955;SDS011;23776;51.592;7.180;2022-08-25T16:11:55;11.02;;;4.72;;
37955;SDS011;23776;51.592;7.180;2022-08-25T16:14:21;6.75;;;4.05;;
37955;SDS011;23776;51.592;7.180;2022-08-25T16:16:47;4.45;;;3.53;;
37955;SDS011;23776;51.592;7.180;2022-08-25T16:19:12;4.05;;;3.63;;
37955;SDS011;23776;51.592;7.180;2022-08-25T16:21:39;5.45;;;3.53;;
37955;SDS011;23776;51.592;7.180;2022-08-25T16:24:05;5.47;;;3.78;;
37955;SDS011;23776;51.592;7.180;2022-08-25T16:26:32;5.13;;;3.47;;
37955;SDS011;23776;51.592;7.180;2022-08-25T16:29:00;5.97;;;3.67;;
37955;SDS011;23776;51.592;7.180;2022-08-25T16:31:26;4.72;;;3.45;;
37955;SDS011;23776;51.592;7.180;2022-08-25T16:33:52;5.55;;;3.58;;
37955;SDS011;23776;51.592;7.180;2022-08-25T16:36:19;6.32;;;4.05;;
37955;SDS011;23776;51.592;7.180;2022-08-25T16:38:46;10.82;;;4.32;;
37955;SDS011;23776;51.592;7.180;2022-08-25T16:41:14;10.95;;;4.13;;
37955;SDS011;23776;51.592;7.180;2022-08-25T16:43:42;4.65;;;3.63;;
37955;SDS011;23776;51.592;7.180;2022-08-25T16:46:09;3.95;;;3.55;;
37955;SDS011;23776;51.592;7.180;2022-08-25T16:48:37;6.55;;;3.67;;
37955;SDS011;23776;51.592;7.180;2022-08-25T16:51:11;6.00;;;3.60;;
37955;SDS011;23776;51.592;7.180;2022-08-25T16:53:38;5.22;;;3.55;;
37955;SDS011;23776;51.592;7.180;2022-08-25T16:56:23;6.35;;;3.88;;
37955;SDS011;23776;51.592;7.180;2022-08-25T16:59:08;5.88;;;3.70;;
37955;SDS011;23776;51.592;7.180;2022-08-25T17:01:35;5.97;;;3.67;;
37955;SDS011;23776;51.592;7.180;2022-08-25T17:04:02;6.97;;;4.40;;
37955;SDS011;23776;51.592;7.180;2022-08-25T17:06:29;7.60;;;4.10;;
37955;SDS011;23776;51.592;7.180;2022-08-25T17:08:57;5.75;;;4.28;;
37955;SDS011;23776;51.592;7.180;2022-08-25T17:11:30;7.00;;;4.45;;